sensor_id;sensor_type;location;lat;lon;timestamp;P1;durP1;ratioP1;P2;durP2;ratioP2
2406;SDS011;37709;53.480;9.688;2023-11-21T00:00:02;50.30;;;14.80;;
2406;SDS011;37709;53.480;9.688;2023-11-21T00:02:38;51.17;;;16.23;;
2406;SDS011;37709;53.480;9.688;2023-11-21T00:05:09;40.50;;;14.43;;
2406;SDS011;37709;53.480;9.688;2023-11-21T00:07:37;35.80;;;15.37;;
2406;SDS011;37709;53.480;9.688;2023-11-21T00:10:05;43.43;;;15.70;;
2406;SDS011;37709;53.480;9.688;2023-11-21T00:12:34;38.87;;;13.60;;
2406;SDS011;37709;53.480;9.688;2023-11-21T00:15:02;40.83;;;14.60;;
2406;SDS011;37709;53.480;9.688;2023-11-21T00:17:32;47.87;;;15.20;;
2406;SDS011;37709;53.480;9.688;2023-11-21T00:19:59;32.23;;;14.20;;
2406;SDS011;37709;53.480;9.688;2023-11-21T00:22:28;40.00;;;15.13;;
2406;SDS011;37709;53.480;9.688;2023-11-21T00:24:56;41.97;;;15.73;;
2406;SDS011;37709;53.480;9.688;2023-11-21T00:27:25;61.83;;;18.07;;
2406;SDS011;37709;53.480;9.688;2023-11-21T00:29:52;48.43;;;17.50;;
2406;SDS011;37709;53.480;9.688;2023-11-21T00:32:20;51.57;;;18.30;;
2406;SDS011;37709;53.480;9.688;2023-11-21T00:34:48;52.70;;;18.63;;
2406;SDS011;37709;53.480;9.688;2023-11-21T00:37:19;48.50;;;18.83;;
2406;SDS011;37709;53.480;9.688;2023-11-21T00:39:48;53.43;;;19.10;;
2406;SDS011;37709;53.480;9.688;2023-11-21T00:42:16;49.97;;;17.77;;
2406;SDS011;37709;53.480;9.688;2023-11-21T00:44:44;68.10;;;21.30;;
2406;SDS011;37709;53.480;9.688;2023-11-21T00:47:12;48.23;;;18.07;;
2406;SDS011;37709;53.480;9.688;2023-11-21T00:49:40;46.27;;;18.60;;
2406;SDS011;37709;53.480;9.688;2023-11-21T00:52:09;45.00;;;17.63;;
2406;SDS011;37709;53.480;9.688;2023-11-21T00:54:37;31.63;;;14.60;;
2406;SDS011;37709;53.480;9.688;2023-11-21T00:57:05;34.73;;;14.87;;
2406;SDS011;37709;53.480;9.688;2023-11-21T00:59:33;29.80;;;15.37;;
2406;SDS011;37709;53.480;9.688;2023-11-21T01:02:01;36.07;;;15.10;;
2406;SDS011;37709;53.480;9.688;2023-11-21T01:04:32;28.33;;;13.87;;
2406;SDS011;37709;53.480;9.688;2023-11-21T01:07:00;26.10;;;13.07;;
2406;SDS011;37709;53.480;9.688;2023-11-21T01:09:27;27.10;;;13.17;;
2406;SDS011;37709;53.480;9.688;2023-11-21T01:11:55;20.53;;;12.60;;
2406;SDS011;37709;53.480;9.688;2023-11-21T01:14:23;30.80;;;13.93;;
2406;SDS011;37709;53.480;9.688;2023-11-21T01:16:53;33.10;;;15.70;;
2406;SDS011;37709;53.480;9.688;2023-11-21T01:19:21;21.23;;;12.40;;
2406;SDS011;37709;53.480;9.688;2023-11-21T01:21:49;25.50;;;12.60;;
2406;SDS011;37709;53.480;9.688;2023-11-21T01:24:16;29.97;;;13.00;;
2406;SDS011;37709;53.480;9.688;2023-11-21T01:26:45;16.70;;;10.07;;
2406;SDS011;37709;53.480;9.688;2023-11-21T01:29:13;16.07;;;9.87;;
2406;SDS011;37709;53.480;9.688;2023-11-21T01:31:41;13.70;;;8.17;;
2406;SDS011;37709;53.480;9.688;2023-11-21T01:34:10;17.20;;;8.90;;
2406;SDS011;37709;53.480;9.688;2023-11-21T01:36:38;19.10;;;11.03;;
2406;SDS011;37709;53.480;9.688;2023-11-21T01:39:06;14.57;;;10.30;;
2406;SDS011;37709;53.480;9.688;2023-11-21T01:41:37;18.50;;;10.73;;
2406;SDS011;37709;53.480;9.688;2023-11-21T01:44:04;17.47;;;10.53;;
2406;SDS011;37709;53.480;9.688;2023-11-21T01:46:35;28.83;;;13.13;;
2406;SDS011;37709;53.480;9.688;2023-11-21T01:49:05;19.00;;;12.27;;
2406;SDS011;37709;53.480;9.688;2023-11-21T01:51:33;22.87;;;13.80;;
2406;SDS011;37709;53.480;9.688;2023-11-21T01:54:02;23.30;;;13.57;;
2406;SDS011;37709;53.480;9.688;2023-11-21T01:56:32;25.00;;;12.70;;
2406;SDS011;37709;53.480;9.688;2023-11-21T01:59:00;24.47;;;14.40;;
2406;SDS011;37709;53.480;9.688;2023-11-21T02:01:28;30.10;;;14.43;;
2406;SDS011;37709;53.480;9.688;2023-11-21T02:03:57;26.17;;;15.10;;
2406;SDS011;37709;53.480;9.688;2023-11-21T02:06:25;26.07;;;15.60;;
2406;SDS011;37709;53.480;9.688;2023-11-21T02:08:57;32.20;;;16.00;;
2406;SDS011;37709;53.480;9.688;2023-11-21T02:11:27;30.60;;;17.17;;
2406;SDS011;37709;53.480;9.688;2023-11-21T02:13:54;32.43;;;18.10;;
2406;SDS011;37709;53.480;9.688;2023-11-21T02:16:26;29.77;;;16.27;;
2406;SDS011;37709;53.480;9.688;2023-11-21T02:18:55;28.23;;;15.70;;
2406;SDS011;37709;53.480;9.688;2023-11-21T02:21:24;31.70;;;15.93;;
2406;SDS011;37709;53.480;9.688;2023-11-21T02:23:53;29.53;;;15.03;;
2406;SDS011;37709;53.480;9.688;2023-11-21T02:26:22;28.10;;;17.00;;
2406;SDS011;37709;53.480;9.688;2023-11-21T02:28:50;25.00;;;14.60;;
2406;SDS011;37709;53.480;9.688;2023-11-21T02:31:20;30.13;;;15.70;;
2406;SDS011;37709;53.480;9.688;2023-11-21T02:33:49;28.20;;;14.90;;
2406;SDS011;37709;53.480;9.688;2023-11-21T02:36:18;26.70;;;15.30;;
2406;SDS011;37709;53.480;9.688;2023-11-21T02:38:48;22.87;;;15.30;;
2406;SDS011;37709;53.480;9.688;2023-11-21T02:41:15;18.90;;;12.93;;
2406;SDS011;37709;53.480;9.688;2023-11-21T02:43:44;27.70;;;14.27;;
2406;SDS011;37709;53.480;9.688;2023-11-21T02:46:13;16.93;;;12.93;;
2406;SDS011;37709;53.480;9.688;2023-11-21T02:48:41;24.30;;;13.60;;
2406;SDS011;37709;53.480;9.688;2023-11-21T02:51:09;22.30;;;11.80;;
2406;SDS011;37709;53.480;9.688;2023-11-21T02:53:36;11.23;;;8.63;;
2406;SDS011;37709;53.480;9.688;2023-11-21T02:56:05;11.80;;;8.50;;
2406;SDS011;37709;53.480;9.688;2023-11-21T02:58:33;11.90;;;8.60;;
2406;SDS011;37709;53.480;9.688;2023-11-21T03:01:00;10.63;;;7.40;;
2406;SDS011;37709;53.480;9.688;2023-11-21T03:03:28;9.27;;;6.90;;
2406;SDS011;37709;53.480;9.688;2023-11-21T03:05:56;8.07;;;7.10;;
2406;SDS011;37709;53.480;9.688;2023-11-21T03:08:24;11.47;;;7.77;;
2406;SDS011;37709;53.480;9.688;2023-11-21T03:10:52;8.40;;;7.00;;
2406;SDS011;37709;53.480;9.688;2023-11-21T03:13:20;9.50;;;7.03;;
2406;SDS011;37709;53.480;9.688;2023-11-21T03:15:48;8.43;;;6.70;;
2406;SDS011;37709;53.480;9.688;2023-11-21T03:18:17;10.07;;;7.93;;
2406;SDS011;37709;53.480;9.688;2023-11-21T03:20:45;10.23;;;7.93;;
2406;SDS011;37709;53.480;9.688;2023-11-21T03:23:13;10.70;;;8.13;;
2406;SDS011;37709;53.480;9.688;2023-11-21T03:25:42;10.20;;;7.80;;
2406;SDS011;37709;53.480;9.688;2023-11-21T03:28:10;11.30;;;7.77;;
2406;SDS011;37709;53.480;9.688;2023-11-21T03:30:38;10.33;;;7.90;;
2406;SDS011;37709;53.480;9.688;2023-11-21T03:33:06;9.00;;;8.03;;
2406;SDS011;37709;53.480;9.688;2023-11-21T03:35:35;8.97;;;6.93;;
2406;SDS011;37709;53.480;9.688;2023-11-21T03:38:03;8.27;;;6.87;;
2406;SDS011;37709;53.480;9.688;2023-11-21T03:40:32;9.77;;;7.20;;
2406;SDS011;37709;53.480;9.688;2023-11-21T03:43:01;8.83;;;6.50;;
2406;SDS011;37709;53.480;9.688;2023-11-21T03:45:29;8.80;;;6.70;;
2406;SDS011;37709;53.480;9.688;2023-11-21T03:47:58;10.03;;;7.70;;
2406;SDS011;37709;53.480;9.688;2023-11-21T03:50:29;8.20;;;7.10;;
2406;SDS011;37709;53.480;9.688;2023-11-21T03:52:58;8.33;;;7.50;;
2406;SDS011;37709;53.480;9.688;2023-11-21T03:55:27;6.73;;;6.03;;
2406;SDS011;37709;53.480;9.688;2023-11-21T03:57:55;7.77;;;6.30;;
2406;SDS011;37709;53.480;9.688;2023-11-21T04:00:25;8.40;;;7.10;;
2406;SDS011;37709;53.480;9.688;2023-11-21T04:02:54;9.97;;;7.37;;
2406;SDS011;37709;53.480;9.688;2023-11-21T04:05:21;7.43;;;6.40;;
2406;SDS011;37709;53.480;9.688;2023-11-21T04:07:49;10.83;;;7.03;;
2406;SDS011;37709;53.480;9.688;2023-11-21T04:10:19;8.90;;;7.13;;
2406;SDS011;37709;53.480;9.688;2023-11-21T04:12:47;10.10;;;7.37;;
2406;SDS011;37709;53.480;9.688;2023-11-21T04:15:15;8.77;;;7.40;;
2406;SDS011;37709;53.480;9.688;2023-11-21T04:17:44;8.70;;;7.27;;
2406;SDS011;37709;53.480;9.688;2023-11-21T04:20:12;11.10;;;7.07;;
2406;SDS011;37709;53.480;9.688;2023-11-21T04:22:41;11.23;;;7.90;;
2406;SDS011;37709;53.480;9.688;2023-11-21T04:25:11;12.40;;;8.13;;
2406;SDS011;37709;53.480;9.688;2023-11-21T04:27:39;10.57;;;8.33;;
2406;SDS011;37709;53.480;9.688;2023-11-21T04:30:08;9.47;;;8.03;;
2406;SDS011;37709;53.480;9.688;2023-11-21T04:32:37;10.00;;;7.77;;
2406;SDS011;37709;53.480;9.688;2023-11-21T04:35:06;10.17;;;8.00;;
2406;SDS011;37709;53.480;9.688;2023-11-21T04:37:35;9.43;;;7.27;;
2406;SDS011;37709;53.480;9.688;2023-11-21T04:40:03;11.27;;;7.57;;
2406;SDS011;37709;53.480;9.688;2023-11-21T04:42:34;11.20;;;8.87;;
2406;SDS011;37709;53.480;9.688;2023-11-21T04:45:05;10.43;;;8.10;;
2406;SDS011;37709;53.480;9.688;2023-11-21T04:47:39;9.73;;;8.27;;
2406;SDS011;37709;53.480;9.688;2023-11-21T04:50:07;10.90;;;8.30;;
2406;SDS011;37709;53.480;9.688;2023-11-21T04:52:35;8.27;;;7.30;;
2406;SDS011;37709;53.480;9.688;2023-11-21T04:55:03;11.37;;;7.80;;
2406;SDS011;37709;53.480;9.688;2023-11-21T04:57:34;8.47;;;7.27;;
2406;SDS011;37709;53.480;9.688;2023-11-21T05:00:03;9.47;;;7.10;;
2406;SDS011;37709;53.480;9.688;2023-11-21T05:02:32;10.70;;;8.23;;
2406;SDS011;37709;53.480;9.688;2023-11-21T05:05:05;9.27;;;7.90;;
2406;SDS011;37709;53.480;9.688;2023-11-21T05:07:36;8.57;;;7.67;;
2406;SDS011;37709;53.480;9.688;2023-11-21T05:10:06;9.27;;;7.97;;
2406;SDS011;37709;53.480;9.688;2023-11-21T05:12:42;9.93;;;8.17;;
2406;SDS011;37709;53.480;9.688;2023-11-21T05:15:12;9.40;;;7.93;;
2406;SDS011;37709;53.480;9.688;2023-11-21T05:17:42;10.33;;;8.30;;
2406;SDS011;37709;53.480;9.688;2023-11-21T05:20:17;9.67;;;8.60;;
2406;SDS011;37709;53.480;9.688;2023-11-21T05:22:47;11.53;;;8.20;;
2406;SDS011;37709;53.480;9.688;2023-11-21T05:25:16;9.80;;;8.20;;
2406;SDS011;37709;53.480;9.688;2023-11-21T05:27:45;10.10;;;8.33;;
2406;SDS011;37709;53.480;9.688;2023-11-21T05:30:13;12.03;;;8.20;;
2406;SDS011;37709;53.480;9.688;2023-11-21T05:32:41;10.00;;;7.80;;
2406;SDS011;37709;53.480;9.688;2023-11-21T05:35:10;11.57;;;8.80;;
2406;SDS011;37709;53.480;9.688;2023-11-21T05:37:43;9.77;;;8.63;;
2406;SDS011;37709;53.480;9.688;2023-11-21T05:40:15;9.40;;;8.03;;
2406;SDS011;37709;53.480;9.688;2023-11-21T05:42:45;11.47;;;9.27;;
2406;SDS011;37709;53.480;9.688;2023-11-21T05:45:14;11.00;;;8.27;;
2406;SDS011;37709;53.480;9.688;2023-11-21T05:47:43;12.20;;;9.47;;
2406;SDS011;37709;53.480;9.688;2023-11-21T05:50:13;11.83;;;9.80;;
2406;SDS011;37709;53.480;9.688;2023-11-21T05:52:42;10.27;;;8.73;;
2406;SDS011;37709;53.480;9.688;2023-11-21T05:55:10;10.90;;;8.73;;
2406;SDS011;37709;53.480;9.688;2023-11-21T05:57:38;12.57;;;9.27;;
2406;SDS011;37709;53.480;9.688;2023-11-21T06:00:07;10.73;;;9.50;;
2406;SDS011;37709;53.480;9.688;2023-11-21T06:02:39;10.33;;;8.23;;
2406;SDS011;37709;53.480;9.688;2023-11-21T06:05:08;11.27;;;8.80;;
2406;SDS011;37709;53.480;9.688;2023-11-21T06:07:36;11.90;;;8.40;;
2406;SDS011;37709;53.480;9.688;2023-11-21T06:10:04;11.33;;;9.13;;
2406;SDS011;37709;53.480;9.688;2023-11-21T06:12:35;10.13;;;8.30;;
2406;SDS011;37709;53.480;9.688;2023-11-21T06:15:04;11.03;;;8.30;;
2406;SDS011;37709;53.480;9.688;2023-11-21T06:17:37;11.47;;;8.87;;
2406;SDS011;37709;53.480;9.688;2023-11-21T06:20:07;10.50;;;9.40;;
2406;SDS011;37709;53.480;9.688;2023-11-21T06:25:04;12.10;;;8.60;;
2406;SDS011;37709;53.480;9.688;2023-11-21T06:27:37;11.60;;;9.33;;
2406;SDS011;37709;53.480;9.688;2023-11-21T06:30:06;9.70;;;7.70;;
2406;SDS011;37709;53.480;9.688;2023-11-21T06:32:36;10.00;;;9.00;;
2406;SDS011;37709;53.480;9.688;2023-11-21T06:35:04;11.97;;;8.53;;
2406;SDS011;37709;53.480;9.688;2023-11-21T06:37:32;10.73;;;8.23;;
2406;SDS011;37709;53.480;9.688;2023-11-21T06:40:00;12.23;;;9.00;;
2406;SDS011;37709;53.480;9.688;2023-11-21T06:42:32;9.80;;;8.77;;
2406;SDS011;37709;53.480;9.688;2023-11-21T06:45:00;9.73;;;8.63;;
2406;SDS011;37709;53.480;9.688;2023-11-21T06:47:33;10.17;;;8.70;;
2406;SDS011;37709;53.480;9.688;2023-11-21T06:50:01;9.50;;;8.30;;
2406;SDS011;37709;53.480;9.688;2023-11-21T06:52:31;11.37;;;9.50;;
2406;SDS011;37709;53.480;9.688;2023-11-21T06:55:01;10.10;;;8.57;;
2406;SDS011;37709;53.480;9.688;2023-11-21T06:57:29;9.27;;;8.13;;
2406;SDS011;37709;53.480;9.688;2023-11-21T06:59:58;11.50;;;8.70;;
2406;SDS011;37709;53.480;9.688;2023-11-21T07:02:25;11.87;;;8.73;;
2406;SDS011;37709;53.480;9.688;2023-11-21T07:04:53;11.60;;;9.00;;
2406;SDS011;37709;53.480;9.688;2023-11-21T07:07:21;10.37;;;8.83;;
2406;SDS011;37709;53.480;9.688;2023-11-21T07:09:49;10.30;;;8.60;;
2406;SDS011;37709;53.480;9.688;2023-11-21T07:12:18;11.13;;;9.00;;
2406;SDS011;37709;53.480;9.688;2023-11-21T07:14:50;12.30;;;9.30;;
2406;SDS011;37709;53.480;9.688;2023-11-21T07:17:18;10.27;;;8.13;;
2406;SDS011;37709;53.480;9.688;2023-11-21T07:19:46;12.10;;;8.80;;
2406;SDS011;37709;53.480;9.688;2023-11-21T07:22:14;12.90;;;8.83;;
2406;SDS011;37709;53.480;9.688;2023-11-21T07:24:42;10.37;;;8.53;;
2406;SDS011;37709;53.480;9.688;2023-11-21T07:27:11;11.10;;;8.07;;
2406;SDS011;37709;53.480;9.688;2023-11-21T07:29:40;9.53;;;8.23;;
2406;SDS011;37709;53.480;9.688;2023-11-21T07:32:08;12.10;;;9.23;;
2406;SDS011;37709;53.480;9.688;2023-11-21T07:34:40;11.20;;;8.80;;
2406;SDS011;37709;53.480;9.688;2023-11-21T07:37:10;11.00;;;8.70;;
2406;SDS011;37709;53.480;9.688;2023-11-21T07:39:38;13.43;;;8.60;;
2406;SDS011;37709;53.480;9.688;2023-11-21T07:42:09;9.90;;;8.53;;
2406;SDS011;37709;53.480;9.688;2023-11-21T07:44:38;11.67;;;8.00;;
2406;SDS011;37709;53.480;9.688;2023-11-21T07:47:05;12.13;;;8.93;;
2406;SDS011;37709;53.480;9.688;2023-11-21T07:49:34;11.93;;;9.30;;
2406;SDS011;37709;53.480;9.688;2023-11-21T07:52:04;11.77;;;9.20;;
2406;SDS011;37709;53.480;9.688;2023-11-21T07:54:31;10.03;;;7.87;;
2406;SDS011;37709;53.480;9.688;2023-11-21T07:57:02;9.30;;;8.17;;
2406;SDS011;37709;53.480;9.688;2023-11-21T07:59:31;11.40;;;8.43;;
2406;SDS011;37709;53.480;9.688;2023-11-21T08:01:59;11.53;;;9.90;;
2406;SDS011;37709;53.480;9.688;2023-11-21T08:04:27;9.67;;;8.10;;
2406;SDS011;37709;53.480;9.688;2023-11-21T08:06:59;11.23;;;8.60;;
2406;SDS011;37709;53.480;9.688;2023-11-21T08:09:28;9.40;;;8.40;;
2406;SDS011;37709;53.480;9.688;2023-11-21T08:11:55;12.10;;;8.93;;
2406;SDS011;37709;53.480;9.688;2023-11-21T08:14:23;12.30;;;8.53;;
2406;SDS011;37709;53.480;9.688;2023-11-21T08:16:54;10.33;;;8.20;;
2406;SDS011;37709;53.480;9.688;2023-11-21T08:19:24;11.93;;;8.53;;
2406;SDS011;37709;53.480;9.688;2023-11-21T08:21:53;11.30;;;8.53;;
2406;SDS011;37709;53.480;9.688;2023-11-21T08:24:22;9.00;;;8.10;;
2406;SDS011;37709;53.480;9.688;2023-11-21T08:26:49;9.23;;;8.13;;
2406;SDS011;37709;53.480;9.688;2023-11-21T08:29:18;12.50;;;8.70;;
2406;SDS011;37709;53.480;9.688;2023-11-21T08:31:46;9.33;;;7.87;;
2406;SDS011;37709;53.480;9.688;2023-11-21T08:34:14;9.10;;;7.30;;
2406;SDS011;37709;53.480;9.688;2023-11-21T08:36:43;9.97;;;8.70;;
2406;SDS011;37709;53.480;9.688;2023-11-21T08:39:13;9.60;;;8.57;;
2406;SDS011;37709;53.480;9.688;2023-11-21T08:41:43;8.50;;;7.20;;
2406;SDS011;37709;53.480;9.688;2023-11-21T08:44:13;9.10;;;7.87;;
2406;SDS011;37709;53.480;9.688;2023-11-21T08:46:44;9.03;;;7.70;;
2406;SDS011;37709;53.480;9.688;2023-11-21T08:49:13;9.80;;;8.00;;
2406;SDS011;37709;53.480;9.688;2023-11-21T08:51:42;8.17;;;7.27;;
2406;SDS011;37709;53.480;9.688;2023-11-21T08:54:11;7.37;;;6.53;;
2406;SDS011;37709;53.480;9.688;2023-11-21T08:56:40;7.67;;;6.90;;
2406;SDS011;37709;53.480;9.688;2023-11-21T08:59:09;7.90;;;7.00;;
2406;SDS011;37709;53.480;9.688;2023-11-21T09:01:39;9.37;;;6.80;;
2406;SDS011;37709;53.480;9.688;2023-11-21T09:04:07;10.63;;;7.60;;
2406;SDS011;37709;53.480;9.688;2023-11-21T09:06:35;8.53;;;7.17;;
2406;SDS011;37709;53.480;9.688;2023-11-21T09:09:03;8.30;;;7.40;;
2406;SDS011;37709;53.480;9.688;2023-11-21T09:11:33;8.73;;;6.70;;
2406;SDS011;37709;53.480;9.688;2023-11-21T09:14:03;8.47;;;7.00;;
2406;SDS011;37709;53.480;9.688;2023-11-21T09:16:31;9.10;;;8.00;;
2406;SDS011;37709;53.480;9.688;2023-11-21T09:19:00;7.57;;;6.73;;
2406;SDS011;37709;53.480;9.688;2023-11-21T09:21:28;7.93;;;7.13;;
2406;SDS011;37709;53.480;9.688;2023-11-21T09:24:00;8.20;;;7.40;;
2406;SDS011;37709;53.480;9.688;2023-11-21T09:26:27;8.17;;;7.17;;
2406;SDS011;37709;53.480;9.688;2023-11-21T09:28:56;7.00;;;6.30;;
2406;SDS011;37709;53.480;9.688;2023-11-21T09:31:24;6.30;;;5.70;;
2406;SDS011;37709;53.480;9.688;2023-11-21T09:33:53;6.80;;;6.20;;
2406;SDS011;37709;53.480;9.688;2023-11-21T09:36:21;6.27;;;5.67;;
2406;SDS011;37709;53.480;9.688;2023-11-21T09:38:53;8.17;;;6.50;;
2406;SDS011;37709;53.480;9.688;2023-11-21T09:41:33;8.70;;;6.00;;
2406;SDS011;37709;53.480;9.688;2023-11-21T09:44:02;9.30;;;6.60;;
2406;SDS011;37709;53.480;9.688;2023-11-21T09:46:32;8.70;;;6.00;;
2406;SDS011;37709;53.480;9.688;2023-11-21T09:49:00;6.50;;;5.90;;
2406;SDS011;37709;53.480;9.688;2023-11-21T09:51:32;9.20;;;7.73;;
2406;SDS011;37709;53.480;9.688;2023-11-21T09:54:03;8.90;;;6.40;;
2406;SDS011;37709;53.480;9.688;2023-11-21T09:56:36;7.20;;;5.00;;
2406;SDS011;37709;53.480;9.688;2023-11-21T09:59:05;5.97;;;5.37;;
2406;SDS011;37709;53.480;9.688;2023-11-21T10:01:36;5.80;;;5.20;;
2406;SDS011;37709;53.480;9.688;2023-11-21T10:04:09;5.27;;;4.53;;
2406;SDS011;37709;53.480;9.688;2023-11-21T10:06:40;7.23;;;5.17;;
2406;SDS011;37709;53.480;9.688;2023-11-21T10:09:10;8.37;;;5.40;;
2406;SDS011;37709;53.480;9.688;2023-11-21T10:11:39;7.70;;;5.30;;
2406;SDS011;37709;53.480;9.688;2023-11-21T10:14:08;5.70;;;4.73;;
2406;SDS011;37709;53.480;9.688;2023-11-21T10:16:40;7.10;;;5.20;;
2406;SDS011;37709;53.480;9.688;2023-11-21T10:19:09;7.33;;;4.40;;
2406;SDS011;37709;53.480;9.688;2023-11-21T10:21:38;5.20;;;4.37;;
2406;SDS011;37709;53.480;9.688;2023-11-21T10:24:06;5.40;;;4.90;;
2406;SDS011;37709;53.480;9.688;2023-11-21T10:26:34;5.20;;;4.40;;
2406;SDS011;37709;53.480;9.688;2023-11-21T10:29:16;9.00;;;4.13;;
2406;SDS011;37709;53.480;9.688;2023-11-21T10:31:51;4.73;;;3.80;;
2406;SDS011;37709;53.480;9.688;2023-11-21T10:34:21;4.33;;;3.57;;
2406;SDS011;37709;53.480;9.688;2023-11-21T10:36:50;4.43;;;3.07;;
2406;SDS011;37709;53.480;9.688;2023-11-21T10:39:18;3.53;;;3.23;;
2406;SDS011;37709;53.480;9.688;2023-11-21T10:41:46;4.10;;;3.70;;
2406;SDS011;37709;53.480;9.688;2023-11-21T10:44:15;4.50;;;3.23;;
2406;SDS011;37709;53.480;9.688;2023-11-21T10:46:54;3.93;;;2.80;;
2406;SDS011;37709;53.480;9.688;2023-11-21T10:49:27;5.60;;;3.50;;
2406;SDS011;37709;53.480;9.688;2023-11-21T10:51:56;4.23;;;3.70;;
2406;SDS011;37709;53.480;9.688;2023-11-21T10:54:24;3.50;;;3.20;;
2406;SDS011;37709;53.480;9.688;2023-11-21T10:56:53;5.10;;;3.13;;
2406;SDS011;37709;53.480;9.688;2023-11-21T10:59:29;4.10;;;2.93;;
2406;SDS011;37709;53.480;9.688;2023-11-21T11:01:59;3.53;;;2.80;;
2406;SDS011;37709;53.480;9.688;2023-11-21T11:04:32;3.43;;;2.27;;
2406;SDS011;37709;53.480;9.688;2023-11-21T11:07:05;3.07;;;2.77;;
2406;SDS011;37709;53.480;9.688;2023-11-21T11:09:36;2.47;;;2.27;;
2406;SDS011;37709;53.480;9.688;2023-11-21T11:12:04;3.03;;;2.73;;
2406;SDS011;37709;53.480;9.688;2023-11-21T11:14:36;2.80;;;2.60;;
2406;SDS011;37709;53.480;9.688;2023-11-21T11:17:03;3.03;;;2.73;;
2406;SDS011;37709;53.480;9.688;2023-11-21T11:19:32;2.73;;;2.43;;
2406;SDS011;37709;53.480;9.688;2023-11-21T11:25:03;3.90;;;2.97;;
2406;SDS011;37709;53.480;9.688;2023-11-21T11:36:15;2.50;;;2.30;;
2406;SDS011;37709;53.480;9.688;2023-11-21T11:38:23;3.37;;;3.00;;
2406;SDS011;37709;53.480;9.688;2023-11-21T11:40:54;3.13;;;2.83;;
2406;SDS011;37709;53.480;9.688;2023-11-21T11:43:26;3.20;;;2.90;;
2406;SDS011;37709;53.480;9.688;2023-11-21T11:45:55;3.10;;;2.80;;
2406;SDS011;37709;53.480;9.688;2023-11-21T11:48:23;3.10;;;2.80;;
2406;SDS011;37709;53.480;9.688;2023-11-21T11:51:11;3.10;;;2.80;;
2406;SDS011;37709;53.480;9.688;2023-11-21T11:53:46;4.87;;;3.30;;
2406;SDS011;37709;53.480;9.688;2023-11-21T11:56:19;3.67;;;3.10;;
2406;SDS011;37709;53.480;9.688;2023-11-21T11:58:48;3.20;;;2.83;;
2406;SDS011;37709;53.480;9.688;2023-11-21T12:01:19;2.60;;;2.40;;
2406;SDS011;37709;53.480;9.688;2023-11-21T12:06:34;2.97;;;2.67;;
2406;SDS011;37709;53.480;9.688;2023-11-21T12:09:02;4.50;;;3.20;;
2406;SDS011;37709;53.480;9.688;2023-11-21T12:11:33;3.03;;;2.73;;
2406;SDS011;37709;53.480;9.688;2023-11-21T12:14:03;2.77;;;2.57;;
2406;SDS011;37709;53.480;9.688;2023-11-21T12:16:36;2.60;;;2.40;;
2406;SDS011;37709;53.480;9.688;2023-11-21T12:19:04;3.40;;;2.67;;
2406;SDS011;37709;53.480;9.688;2023-11-21T12:21:32;2.80;;;2.50;;
2406;SDS011;37709;53.480;9.688;2023-11-21T12:24:00;2.50;;;2.30;;
2406;SDS011;37709;53.480;9.688;2023-11-21T12:26:28;3.47;;;2.63;;
2406;SDS011;37709;53.480;9.688;2023-11-21T12:28:55;2.60;;;2.10;;
2406;SDS011;37709;53.480;9.688;2023-11-21T12:31:24;4.20;;;2.97;;
2406;SDS011;37709;53.480;9.688;2023-11-21T12:33:53;4.17;;;2.40;;
2406;SDS011;37709;53.480;9.688;2023-11-21T12:36:24;2.57;;;2.30;;
2406;SDS011;37709;53.480;9.688;2023-11-21T12:38:52;3.67;;;2.50;;
2406;SDS011;37709;53.480;9.688;2023-11-21T12:41:21;2.30;;;2.10;;
2406;SDS011;37709;53.480;9.688;2023-11-21T12:43:48;3.13;;;2.57;;
2406;SDS011;37709;53.480;9.688;2023-11-21T12:46:17;2.90;;;2.60;;
2406;SDS011;37709;53.480;9.688;2023-11-21T12:48:44;2.73;;;2.20;;
2406;SDS011;37709;53.480;9.688;2023-11-21T12:51:13;3.37;;;2.80;;
2406;SDS011;37709;53.480;9.688;2023-11-21T12:53:44;5.50;;;2.80;;
2406;SDS011;37709;53.480;9.688;2023-11-21T12:56:12;2.83;;;2.63;;
2406;SDS011;37709;53.480;9.688;2023-11-21T13:01:34;3.70;;;2.90;;
2406;SDS011;37709;53.480;9.688;2023-11-21T13:04:03;2.67;;;2.47;;
2406;SDS011;37709;53.480;9.688;2023-11-21T13:06:41;3.57;;;2.97;;
2406;SDS011;37709;53.480;9.688;2023-11-21T13:09:09;2.97;;;2.70;;
2406;SDS011;37709;53.480;9.688;2023-11-21T13:11:37;3.17;;;2.70;;
2406;SDS011;37709;53.480;9.688;2023-11-21T13:14:09;3.77;;;2.60;;
2406;SDS011;37709;53.480;9.688;2023-11-21T13:16:37;6.10;;;3.30;;
2406;SDS011;37709;53.480;9.688;2023-11-21T13:19:09;3.90;;;2.80;;
2406;SDS011;37709;53.480;9.688;2023-11-21T13:21:43;3.40;;;3.10;;
2406;SDS011;37709;53.480;9.688;2023-11-21T13:24:10;3.97;;;3.13;;
2406;SDS011;37709;53.480;9.688;2023-11-21T13:26:38;4.63;;;3.43;;
2406;SDS011;37709;53.480;9.688;2023-11-21T13:29:08;3.47;;;3.17;;
2406;SDS011;37709;53.480;9.688;2023-11-21T13:31:36;3.80;;;3.50;;
2406;SDS011;37709;53.480;9.688;2023-11-21T13:34:06;4.33;;;3.83;;
2406;SDS011;37709;53.480;9.688;2023-11-21T13:36:35;4.20;;;3.37;;
2406;SDS011;37709;53.480;9.688;2023-11-21T13:39:07;4.33;;;3.00;;
2406;SDS011;37709;53.480;9.688;2023-11-21T13:41:41;3.30;;;3.00;;
2406;SDS011;37709;53.480;9.688;2023-11-21T13:44:09;3.60;;;3.27;;
2406;SDS011;37709;53.480;9.688;2023-11-21T13:46:52;3.50;;;3.13;;
2406;SDS011;37709;53.480;9.688;2023-11-21T13:49:20;4.17;;;3.33;;
2406;SDS011;37709;53.480;9.688;2023-11-21T13:51:49;3.40;;;3.03;;
2406;SDS011;37709;53.480;9.688;2023-11-21T13:54:21;3.80;;;2.90;;
2406;SDS011;37709;53.480;9.688;2023-11-21T13:56:51;2.93;;;2.67;;
2406;SDS011;37709;53.480;9.688;2023-11-21T13:59:20;3.27;;;2.97;;
2406;SDS011;37709;53.480;9.688;2023-11-21T14:04:45;3.50;;;2.77;;
2406;SDS011;37709;53.480;9.688;2023-11-21T14:07:17;3.23;;;2.87;;
2406;SDS011;37709;53.480;9.688;2023-11-21T14:09:53;4.40;;;3.13;;
2406;SDS011;37709;53.480;9.688;2023-11-21T14:12:22;3.40;;;3.10;;
2406;SDS011;37709;53.480;9.688;2023-11-21T14:14:50;3.30;;;2.93;;
2406;SDS011;37709;53.480;9.688;2023-11-21T14:17:18;4.47;;;3.27;;
2406;SDS011;37709;53.480;9.688;2023-11-21T14:19:51;3.53;;;3.23;;
2406;SDS011;37709;53.480;9.688;2023-11-21T14:22:21;3.20;;;2.90;;
2406;SDS011;37709;53.480;9.688;2023-11-21T14:24:49;4.90;;;3.10;;
2406;SDS011;37709;53.480;9.688;2023-11-21T14:27:19;3.33;;;3.03;;
2406;SDS011;37709;53.480;9.688;2023-11-21T14:29:47;3.30;;;3.00;;
2406;SDS011;37709;53.480;9.688;2023-11-21T14:32:16;3.53;;;3.10;;
2406;SDS011;37709;53.480;9.688;2023-11-21T14:34:44;4.23;;;3.30;;
2406;SDS011;37709;53.480;9.688;2023-11-21T14:37:14;4.53;;;4.10;;
2406;SDS011;37709;53.480;9.688;2023-11-21T14:39:46;6.70;;;6.00;;
2406;SDS011;37709;53.480;9.688;2023-11-21T14:42:21;7.20;;;5.83;;
2406;SDS011;37709;53.480;9.688;2023-11-21T14:44:52;9.87;;;6.43;;
2406;SDS011;37709;53.480;9.688;2023-11-21T14:47:25;9.13;;;7.07;;
2406;SDS011;37709;53.480;9.688;2023-11-21T14:49:54;10.80;;;7.93;;
2406;SDS011;37709;53.480;9.688;2023-11-21T14:52:26;7.50;;;5.63;;
2406;SDS011;37709;53.480;9.688;2023-11-21T14:55:03;5.40;;;4.43;;
2406;SDS011;37709;53.480;9.688;2023-11-21T14:57:48;6.73;;;6.13;;
2406;SDS011;37709;53.480;9.688;2023-11-21T15:00:19;6.80;;;5.83;;
2406;SDS011;37709;53.480;9.688;2023-11-21T15:03:01;6.13;;;5.53;;
2406;SDS011;37709;53.480;9.688;2023-11-21T15:05:30;5.90;;;4.30;;
2406;SDS011;37709;53.480;9.688;2023-11-21T15:08:03;5.20;;;4.70;;
2406;SDS011;37709;53.480;9.688;2023-11-21T15:10:44;5.87;;;4.77;;
2406;SDS011;37709;53.480;9.688;2023-11-21T15:13:16;5.33;;;4.30;;
2406;SDS011;37709;53.480;9.688;2023-11-21T15:15:44;4.50;;;3.90;;
2406;SDS011;37709;53.480;9.688;2023-11-21T15:18:17;4.17;;;3.50;;
2406;SDS011;37709;53.480;9.688;2023-11-21T15:20:46;3.53;;;3.23;;
2406;SDS011;37709;53.480;9.688;2023-11-21T15:23:16;6.03;;;4.10;;
2406;SDS011;37709;53.480;9.688;2023-11-21T15:25:50;4.07;;;3.60;;
2406;SDS011;37709;53.480;9.688;2023-11-21T15:28:20;3.83;;;3.53;;